Time;durP1;ratioP1;P1;durP2;ratioP2;P2;SDS_P1;SDS_P2;PMS_P1;PMS_P2;Temp;Humidity;BMP_temperature;BMP_pressure;BME280_temperature;BME280_humidity;BME280_pressure;Samples;Min_cycle;Max_cycle;Signal;HPM_P1;HPM_P2
2021/09/01 00:02:04;;;;;;;54.73;17.87;;;;;;;8.37;100.00;94617.13;5074656;28;20564;-81
2021/09/01 00:04:31;;;;;;;60.30;22.77;;;;;;;8.40;100.00;94604.59;5074112;28;20430;-81
2021/09/01 00:06:57;;;;;;;62.13;20.70;;;;;;;8.49;100.00;94608.84;5074732;28;20451;-81
2021/09/01 00:09:24;;;;;;;49.03;16.77;;;;;;;8.40;100.00;94607.22;5074666;28;20229;-82
2021/09/01 00:11:51;;;;;;;56.63;19.20;;;;;;;8.47;100.00;94605.59;5074582;28;20206;-80
2021/09/01 00:14:17;;;;;;;55.87;18.83;;;;;;;8.57;100.00;94610.59;5074456;28;20222;-81
2021/09/01 00:16:44;;;;;;;45.90;16.17;;;;;;;8.36;100.00;94608.53;5074435;28;20712;-82
2021/09/01 00:19:13;;;;;;;62.70;20.60;;;;;;;8.60;100.00;94609.47;5074443;28;20561;-82
2021/09/01 00:21:40;;;;;;;63.60;20.07;;;;;;;8.52;100.00;94608.50;5074533;28;20203;-82
2021/09/01 00:24:07;;;;;;;64.73;22.10;;;;;;;8.61;100.00;94609.31;5074280;28;20297;-82
2021/09/01 00:26:35;;;;;;;76.73;21.97;;;;;;;8.70;100.00;94605.69;5074454;28;20199;-82
2021/09/01 00:29:02;;;;;;;60.87;19.90;;;;;;;8.50;100.00;94612.25;5074387;28;20198;-81
2021/09/01 00:31:29;;;;;;;45.17;16.67;;;;;;;8.37;100.00;94614.53;5074440;28;20214;-81
2021/09/01 00:33:56;;;;;;;32.17;13.43;;;;;;;8.07;100.00;94612.44;5074271;28;20523;-81
2021/09/01 00:36:24;;;;;;;36.70;13.03;;;;;;;7.95;100.00;94614.56;5073913;28;20588;-80
2021/09/01 00:38:50;;;;;;;35.80;13.53;;;;;;;7.99;100.00;94616.84;5073933;28;20553;-81
2021/09/01 00:41:19;;;;;;;39.73;15.43;;;;;;;8.00;100.00;94608.09;5074204;28;20199;-81
2021/09/01 00:43:51;;;;;;;58.20;20.03;;;;;;;8.52;100.00;94612.91;5074092;28;20241;-80
2021/09/01 00:46:18;;;;;;;46.70;17.47;;;;;;;8.37;100.00;94609.34;5073797;28;20265;-81
2021/09/01 00:48:45;;;;;;;51.73;18.90;;;;;;;8.29;100.00;94608.38;5073848;28;20264;-81
2021/09/01 00:51:12;;;;;;;47.10;16.13;;;;;;;8.30;100.00;94609.97;5073782;28;20289;-81
2021/09/01 00:53:44;;;;;;;60.80;20.73;;;;;;;8.44;100.00;94607.72;5074123;28;20194;-81
2021/09/01 00:56:16;;;;;;;57.37;19.30;;;;;;;8.43;100.00;94614.72;5073936;28;20530;-81
2021/09/01 00:58:43;;;;;;;72.47;22.67;;;;;;;8.49;100.00;94614.06;5073321;28;20600;-81
2021/09/01 01:01:18;;;;;;;63.27;18.90;;;;;;;8.38;100.00;94606.56;5073672;28;20293;-81
2021/09/01 01:03:49;;;;;;;39.87;13.93;;;;;;;7.97;100.00;94609.22;5073490;28;20203;-81
2021/09/01 01:06:17;;;;;;;30.97;12.53;;;;;;;7.78;100.00;94612.97;5073350;28;20206;-81
2021/09/01 01:08:45;;;;;;;36.80;13.10;;;;;;;7.69;100.00;94613.91;5073400;28;20224;-81
2021/09/01 01:11:13;;;;;;;40.00;14.33;;;;;;;7.77;100.00;94614.72;5073520;28;20210;-81
2021/09/01 01:13:43;;;;;;;36.90;13.00;;;;;;;7.68;100.00;94618.31;5073386;28;20206;-81
2021/09/01 01:16:11;;;;;;;28.67;12.10;;;;;;;7.53;100.00;94612.13;5073380;28;20198;-81
2021/09/01 01:18:38;;;;;;;30.53;12.07;;;;;;;7.43;100.00;94612.28;5073420;28;20199;-79
2021/09/01 01:21:04;;;;;;;48.17;15.97;;;;;;;7.60;100.00;94613.13;5073597;28;20586;-81
2021/09/01 01:23:31;;;;;;;48.43;15.50;;;;;;;7.68;100.00;94613.13;5073304;28;20223;-82
2021/09/01 01:25:59;;;;;;;57.63;19.20;;;;;;;7.92;100.00;94621.91;5073145;28;20206;-82
2021/09/01 01:28:26;;;;;;;63.23;20.33;;;;;;;7.74;100.00;94620.28;5073158;28;20618;-81
2021/09/01 01:31:03;;;;;;;76.97;21.70;;;;;;;8.08;100.00;94611.50;5073394;28;20661;-82
2021/09/01 01:33:30;;;;;;;74.97;22.80;;;;;;;8.23;100.00;94606.44;5058855;28;20196;-82
2021/09/01 01:35:56;;;;;;;61.53;17.53;;;;;;;8.01;100.00;94609.69;5053169;28;20227;-81
2021/09/01 01:38:23;;;;;;;56.83;19.23;;;;;;;7.89;100.00;94617.00;5052964;28;20234;-81
2021/09/01 01:40:49;;;;;;;41.07;14.47;;;;;;;7.73;100.00;94618.66;5056201;28;20202;-82
2021/09/01 01:43:20;;;;;;;33.83;13.83;;;;;;;7.58;100.00;94625.47;5052111;28;20245;-81
2021/09/01 01:45:50;;;;;;;37.47;13.20;;;;;;;7.52;100.00;94616.50;5053007;28;20259;-81
2021/09/01 01:48:17;;;;;;;48.83;14.40;;;;;;;7.41;100.00;94620.25;5053249;28;20225;-81
2021/09/01 01:50:45;;;;;;;37.93;12.97;;;;;;;7.40;100.00;94617.78;5057499;28;20676;-81
2021/09/01 01:53:11;;;;;;;58.57;16.27;;;;;;;7.54;100.00;94618.94;5072966;28;20199;-81
2021/09/01 01:55:38;;;;;;;55.13;16.97;;;;;;;7.59;100.00;94627.06;5072929;28;20235;-80
2021/09/01 01:58:05;;;;;;;52.57;16.80;;;;;;;7.55;100.00;94623.97;5073136;28;20226;-81
2021/09/01 02:00:36;;;;;;;64.03;17.33;;;;;;;7.55;100.00;94623.97;5073022;28;20202;-81
2021/09/01 02:03:04;;;;;;;41.87;14.57;;;;;;;7.48;100.00;94619.59;5072881;28;20697;-81
2021/09/01 02:05:30;;;;;;;47.07;15.07;;;;;;;7.35;100.00;94630.44;5072992;28;20282;-81
2021/09/01 02:07:57;;;;;;;46.67;15.13;;;;;;;7.32;100.00;94623.78;5072839;28;20198;-81
2021/09/01 02:10:26;;;;;;;57.00;21.58;;;;;;;7.28;100.00;94627.69;5071547;28;20924;-81
2021/09/01 02:12:54;;;;;;;63.03;17.87;;;;;;;7.51;100.00;94629.66;5072827;28;20198;-81
2021/09/01 02:15:20;;;;;;;57.07;16.73;;;;;;;7.43;100.00;94624.44;5072810;28;20530;-81
2021/09/01 02:17:48;;;;;;;49.50;16.10;;;;;;;7.46;100.00;94626.72;5072887;28;20230;-81
2021/09/01 02:20:17;;;;;;;61.35;18.90;;;;;;;7.41;100.00;94622.84;5076551;28;20438;-81
2021/09/01 02:22:44;;;;;;;62.77;18.97;;;;;;;7.52;100.00;94624.28;5076809;28;20316;-81
2021/09/01 02:25:15;;;;;;;57.67;18.67;;;;;;;7.35;100.00;94620.88;5076851;28;20198;-82
2021/09/01 02:27:42;;;;;;;68.60;19.93;;;;;;;7.55;100.00;94617.97;5076769;28;20206;-81
2021/09/01 02:30:10;;;;;;;70.00;18.53;;;;;;;7.47;100.00;94628.34;5076807;28;20202;-81
2021/09/01 02:32:36;;;;;;;55.63;17.07;;;;;;;7.46;100.00;94624.97;5076821;28;20213;-81
2021/09/01 02:35:10;;;;;;;57.23;17.33;;;;;;;7.38;100.00;94623.16;5076638;28;20242;-81
2021/09/01 02:37:37;;;;;;;66.60;18.33;;;;;;;7.48;100.00;94619.59;5076374;28;20238;-82
2021/09/01 02:40:04;;;;;;;54.53;16.90;;;;;;;7.37;100.00;94629.31;5076618;28;20202;-82
2021/09/01 02:42:31;;;;;;;37.83;14.47;;;;;;;7.22;100.00;94623.91;5076586;28;20205;-82
2021/09/01 02:44:59;;;;;;;42.50;15.23;;;;;;;7.18;100.00;94627.00;5076231;28;20701;-82
2021/09/01 02:47:26;;;;;;;45.93;16.47;;;;;;;7.21;100.00;94624.06;5076348;28;20206;-82
2021/09/01 02:49:52;;;;;;;58.53;17.00;;;;;;;7.29;100.00;94618.91;5076250;28;20209;-82
2021/09/01 02:52:23;;;;;;;66.80;19.93;;;;;;;7.55;100.00;94621.38;5075906;28;20203;-81
2021/09/01 02:54:52;;;;;;;74.17;19.37;;;;;;;7.55;100.00;94620.56;5076310;28;20557;-81
2021/09/01 02:57:19;;;;;;;59.77;18.37;;;;;;;7.56;100.00;94612.63;5076185;28;20223;-82
2021/09/01 02:59:45;;;;;;;79.40;20.40;;;;;;;7.60;100.00;94629.50;5076377;28;20199;-82
2021/09/01 03:02:15;;;;;;;58.93;18.33;;;;;;;7.56;100.00;94622.19;5076857;28;20206;-81
2021/09/01 03:04:42;;;;;;;53.33;17.37;;;;;;;7.58;100.00;94620.25;5076451;28;20198;-81
2021/09/01 03:07:09;;;;;;;66.60;19.77;;;;;;;7.61;100.00;94619.94;5075647;28;20207;-80
2021/09/01 03:09:39;;;;;;;66.80;25.80;;;;;;;7.70;100.00;94620.75;5074934;28;20445;-80
2021/09/01 03:12:06;;;;;;;61.77;19.47;;;;;;;7.61;100.00;94609.56;5075922;28;20202;-82
2021/09/01 03:14:33;;;;;;;55.30;18.30;;;;;;;7.64;100.00;94604.00;5075763;28;20199;-82
2021/09/01 03:17:00;;;;;;;53.20;16.47;;;;;;;7.58;100.00;94609.88;5075382;28;20212;-82
2021/09/01 03:19:26;;;;;;;63.33;18.70;;;;;;;7.60;100.00;94613.13;5075806;28;20215;-81
2021/09/01 03:21:53;;;;;;;69.47;20.67;;;;;;;7.84;100.00;94609.69;5075749;28;20205;-82
2021/09/01 03:24:22;;;;;;;74.17;21.20;;;;;;;7.94;100.00;94606.94;5075614;28;20252;-81
2021/09/01 03:26:50;;;;;;;70.43;22.37;;;;;;;8.04;100.00;94601.56;5075740;28;20290;-82
2021/09/01 03:29:17;;;;;;;87.23;22.10;;;;;;;8.05;100.00;94605.81;5075054;28;20285;-82
2021/09/01 03:31:43;;;;;;;73.23;21.93;;;;;;;8.06;100.00;94603.03;5075201;28;20293;-81
2021/09/01 03:34:10;;;;;;;57.80;19.43;;;;;;;7.97;100.00;94601.41;5075528;28;20199;-81
2021/09/01 03:36:37;;;;;;;63.83;19.63;;;;;;;8.07;100.00;94603.84;5075671;28;20230;-81
2021/09/01 03:39:04;;;;;;;65.53;19.37;;;;;;;7.90;100.00;94609.06;5075277;28;20696;-81
2021/09/01 03:41:30;;;;;;;57.37;17.80;;;;;;;7.93;100.00;94600.13;5075393;28;20245;-80
2021/09/01 03:43:58;;;;;;;61.13;19.40;;;;;;;7.91;100.00;94607.25;5075278;28;20225;-82
2021/09/01 03:46:24;;;;;;;70.63;19.50;;;;;;;7.93;100.00;94602.72;5075237;28;20235;-82
2021/09/01 03:48:51;;;;;;;51.33;17.53;;;;;;;7.74;100.00;94602.09;5075267;28;20225;-81
2021/09/01 03:51:20;;;;;;;50.27;17.00;;;;;;;7.63;100.00;94607.59;5075065;28;20649;-81
2021/09/01 03:53:46;;;;;;;57.60;14.67;;;;;;;7.46;100.00;94616.34;5075046;28;20294;-81
2021/09/01 03:56:13;;;;;;;43.60;14.37;;;;;;;7.37;100.00;94616.31;5075087;28;20203;-81
2021/09/01 03:58:39;;;;;;;52.60;15.60;;;;;;;7.40;100.00;94617.78;5074658;28;20253;-81
2021/09/01 04:01:07;;;;;;;47.00;16.20;;;;;;;7.58;100.00;94626.25;5075149;28;20225;-82
2021/09/01 04:03:35;;;;;;;57.97;17.80;;;;;;;7.56;100.00;94624.78;5075081;28;20207;-81
2021/09/01 04:06:02;;;;;;;58.23;18.57;;;;;;;7.67;100.00;94627.06;5075006;28;20199;-82
2021/09/01 04:08:29;;;;;;;71.67;21.27;;;;;;;8.00;100.00;94624.50;5074842;28;20198;-81
2021/09/01 04:10:55;;;;;;;78.40;21.60;;;;;;;7.93;100.00;94620.94;5074709;28;20297;-80
2021/09/01 04:13:22;;;;;;;66.33;18.40;;;;;;;7.71;100.00;94625.78;5074897;28;20287;-82
2021/09/01 04:15:48;;;;;;;55.80;17.53;;;;;;;7.63;100.00;94628.38;5074825;28;20205;-81
2021/09/01 04:18:16;;;;;;;66.47;19.70;;;;;;;7.70;100.00;94618.16;5074662;28;20226;-82
2021/09/01 04:20:43;;;;;;;61.40;19.63;;;;;;;7.71;100.00;94620.59;5074461;28;20202;-81
2021/09/01 04:23:09;;;;;;;64.43;19.00;;;;;;;7.66;100.00;94622.88;5074533;28;20620;-81
2021/09/01 04:25:36;;;;;;;45.27;15.63;;;;;;;7.48;100.00;94623.00;5074570;28;20205;-82
2021/09/01 04:28:03;;;;;;;39.60;14.80;;;;;;;7.32;100.00;94615.97;5074709;28;20290;-80
2021/09/01 04:30:29;;;;;;;40.33;14.67;;;;;;;7.15;100.00;94615.13;5074424;28;20649;-82
2021/09/01 04:32:56;;;;;;;42.80;15.17;;;;;;;7.08;100.00;94623.72;5074435;28;20198;-81
2021/09/01 04:35:25;;;;;;;31.37;13.03;;;;;;;6.98;100.00;94619.47;5074365;28;20217;-81
2021/09/01 04:37:53;;;;;;;42.87;12.47;;;;;;;6.83;100.00;94621.03;5074089;28;20256;-81
2021/09/01 04:40:20;;;;;;;28.47;10.50;;;;;;;6.74;100.00;94615.00;5073893;28;20209;-81
2021/09/01 04:42:46;;;;;;;28.87;11.83;;;;;;;6.77;100.00;94619.88;5074189;28;20203;-81
2021/09/01 04:45:13;;;;;;;42.53;13.67;;;;;;;6.85;100.00;94624.28;5073275;28;20731;-80
2021/09/01 04:47:40;;;;;;;44.80;15.77;;;;;;;7.06;100.00;94620.47;5074015;28;20203;-82
2021/09/01 04:50:07;;;;;;;50.53;16.40;;;;;;;7.12;100.00;94619.84;5073806;28;20734;-81
2021/09/01 04:52:40;;;;;;;46.73;14.90;;;;;;;7.00;100.00;94627.09;5073835;28;20205;-81
2021/09/01 04:55:08;;;;;;;36.53;12.77;;;;;;;6.84;100.00;94622.66;5074019;28;20202;-80
2021/09/01 04:57:36;;;;;;;34.47;12.23;;;;;;;6.73;100.00;94626.34;5073684;28;20653;-82
2021/09/01 05:00:06;;;;;;;39.30;13.80;;;;;;;6.72;100.00;94623.91;5074017;28;20230;-81
2021/09/01 05:02:32;;;;;;;42.67;13.90;;;;;;;6.81;100.00;94621.19;5073986;28;20194;-81
2021/09/01 05:04:59;;;;;;;56.37;17.23;;;;;;;6.91;100.00;94623.69;5073721;28;20206;-81
2021/09/01 05:07:25;;;;;;;58.33;17.80;;;;;;;7.09;100.00;94626.16;5073496;28;20683;-81
2021/09/01 05:09:53;;;;;;;55.23;17.63;;;;;;;7.17;100.00;94625.38;5073843;28;20285;-80
2021/09/01 05:12:20;;;;;;;62.03;18.23;;;;;;;7.20;100.00;94622.47;5073529;28;20202;-81
2021/09/01 05:14:46;;;;;;;50.23;17.50;;;;;;;7.15;100.00;94632.50;5073451;28;20667;-81
2021/09/01 05:17:13;;;;;;;53.93;16.63;;;;;;;7.13;100.00;94631.88;5073391;28;20195;-80
2021/09/01 05:19:39;;;;;;;35.00;13.60;;;;;;;7.02;100.00;94625.97;5073228;28;20222;-79
2021/09/01 05:22:07;;;;;;;45.03;14.93;;;;;;;6.99;100.00;94633.25;5073236;28;20285;-80
2021/09/01 05:24:43;;;;;;;50.37;15.23;;;;;;;6.99;100.00;94628.06;5073205;28;20683;-80
2021/09/01 05:27:12;;;;;;;42.27;14.70;;;;;;;7.01;100.00;94634.75;5073354;28;20204;-81
2021/09/01 05:29:43;;;;;;;52.70;16.63;;;;;;;7.05;100.00;94630.03;5073371;28;20221;-81
2021/09/01 05:32:17;;;;;;;42.60;15.80;;;;;;;7.17;100.00;94638.34;5073153;28;20208;-81
2021/09/01 05:34:44;;;;;;;45.67;15.87;;;;;;;7.18;100.00;94640.78;5073480;28;20203;-82
2021/09/01 05:37:12;;;;;;;52.87;17.23;;;;;;;7.34;100.00;94636.59;5073179;28;20210;-81
2021/09/01 05:39:41;;;;;;;50.80;17.70;;;;;;;7.36;100.00;94638.09;5073311;28;20226;-82
2021/09/01 05:42:09;;;;;;;44.10;16.20;;;;;;;7.32;100.00;94641.16;5073116;28;20561;-81
2021/09/01 05:44:38;;;;;;;40.77;14.57;;;;;;;7.26;100.00;94646.97;5072832;28;20289;-80
2021/09/01 05:47:04;;;;;;;53.27;16.90;;;;;;;7.25;100.00;94645.38;5073190;28;20239;-81
2021/09/01 05:49:31;;;;;;;43.93;14.67;;;;;;;7.30;100.00;94649.09;5073523;28;20226;-81
2021/09/01 05:51:59;;;;;;;58.23;17.97;;;;;;;7.40;100.00;94644.56;5073238;28;20210;-80
2021/09/01 05:54:25;;;;;;;61.47;18.53;;;;;;;7.64;100.00;94644.78;5072536;28;20206;-81
2021/09/01 05:57:01;;;;;;;68.87;21.07;;;;;;;7.64;100.00;94644.78;5072985;28;20209;-81
2021/09/01 05:59:30;;;;;;;64.47;19.37;;;;;;;7.71;100.00;94646.59;5072976;28;20228;-81
2021/09/01 06:02:03;;;;;;;61.77;19.63;;;;;;;7.84;100.00;94646.09;5073098;28;20537;-81
2021/09/01 06:04:37;;;;;;;58.83;20.60;;;;;;;7.98;100.00;94644.66;5072957;28;20241;-81
2021/09/01 06:07:09;;;;;;;70.63;21.37;;;;;;;8.15;100.00;94646.25;5072864;28;20552;-82
2021/09/01 06:09:36;;;;;;;80.67;24.63;;;;;;;8.28;100.00;94643.16;5072858;28;20206;-81
2021/09/01 06:12:05;;;;;;;62.30;21.07;;;;;;;8.22;100.00;94651.63;5072588;28;20195;-80
2021/09/01 06:14:31;;;;;;;66.00;20.33;;;;;;;8.25;100.00;94658.28;5072809;28;20203;-80
2021/09/01 06:16:59;;;;;;;69.25;24.10;;;;;;;8.32;100.00;94665.25;5072661;28;20472;-80
2021/09/01 06:19:26;;;;;;;58.73;19.80;;;;;;;8.36;100.00;94667.53;5072630;28;20599;-81
2021/09/01 06:21:52;;;;;;;59.40;19.07;;;;;;;8.37;100.00;94656.97;5072811;28;20203;-81
2021/09/01 06:24:19;;;;;;;65.03;21.80;;;;;;;8.47;100.00;94668.03;5072607;28;20222;-81
2021/09/01 06:26:45;;;;;;;74.03;22.47;;;;;;;8.57;100.00;94669.66;5072493;28;20198;-81
2021/09/01 06:29:12;;;;;;;70.47;21.17;;;;;;;8.66;100.00;94666.03;5072696;28;20194;-81
2021/09/01 06:31:39;;;;;;;65.40;21.33;;;;;;;8.81;100.00;94673.97;5072571;28;20194;-81
2021/09/01 06:34:07;;;;;;;57.53;20.53;;;;;;;8.93;100.00;94666.66;5072720;28;20260;-80
2021/09/01 06:36:33;;;;;;;55.60;20.50;;;;;;;9.02;100.00;94663.03;5072286;28;20207;-82
2021/09/01 06:39:03;;;;;;;55.53;20.07;;;;;;;9.20;100.00;94663.59;5072314;28;20226;-81
2021/09/01 06:41:31;;;;;;;61.63;21.20;;;;;;;9.35;100.00;94662.88;5072676;28;20225;-80
2021/09/01 06:44:00;;;;;;;48.40;17.87;;;;;;;9.43;100.00;94666.25;5072712;28;20303;-81
2021/09/01 06:46:27;;;;;;;44.87;14.57;;;;;;;9.28;100.00;94661.97;5072090;28;20230;-81
2021/09/01 06:48:53;;;;;;;88.80;13.50;;;;;;;9.32;100.00;94664.03;5073840;28;20202;-81
2021/09/01 06:51:21;;;;;;;82.43;12.17;;;;;;;9.47;100.00;94663.31;5072969;28;20205;-81
2021/09/01 06:53:47;;;;;;;75.90;13.30;;;;;;;9.39;100.00;94658.94;5072426;28;20650;-81
2021/09/01 06:56:14;;;;;;;37.67;11.87;;;;;;;9.49;100.00;94662.16;5072594;28;20210;-81
2021/09/01 06:58:44;;;;;;;81.43;13.73;;;;;;;9.38;100.00;94670.38;5072327;28;20273;-81
2021/09/01 07:01:11;;;;;;;34.03;12.73;;;;;;;9.68;100.00;94667.94;5072419;28;20210;-81
2021/09/01 07:03:37;;;;;;;33.50;13.00;;;;;;;9.59;100.00;94670.59;5072306;28;20207;-81
2021/09/01 07:06:04;;;;;;;29.20;12.40;;;;;;;9.86;100.00;94673.66;5074281;28;20198;-80
2021/09/01 07:08:32;;;;;;;42.80;13.60;;;;;;;9.94;100.00;94668.41;5076050;28;20214;-81
2021/09/01 07:11:00;;;;;;;37.47;12.27;;;;;;;10.03;100.00;94666.53;5075963;28;20546;-81
2021/09/01 07:13:27;;;;;;;29.30;11.20;;;;;;;10.13;100.00;94669.72;5075813;28;20202;-81
2021/09/01 07:15:53;;;;;;;37.13;12.33;;;;;;;10.04;100.00;94667.34;5075791;28;20561;-81
2021/09/01 07:18:20;;;;;;;28.37;13.10;;;;;;;10.12;100.00;94672.50;5075864;28;20207;-81
2021/09/01 07:20:46;;;;;;;31.83;14.03;;;;;;;10.29;100.00;94679.22;5075823;28;20661;-81
2021/09/01 07:23:13;;;;;;;31.73;14.43;;;;;;;10.55;100.00;94672.81;5075849;28;20194;-81
2021/09/01 07:25:41;;;;;;;26.87;14.07;;;;;;;10.75;100.00;94675.72;5075685;28;20282;-80
2021/09/01 07:28:07;;;;;;;27.43;14.43;;;;;;;10.86;100.00;94684.94;5075505;28;20289;-80
2021/09/01 07:30:36;;;;;;;25.70;13.30;;;;;;;10.84;100.00;94686.88;5075635;28;20210;-79
2021/09/01 07:33:03;;;;;;;20.63;11.87;;;;;;;11.00;100.00;94683.31;5075416;28;20195;-79
2021/09/01 07:35:32;;;;;;;13.90;9.67;;;;;;;11.07;100.00;94686.81;5075556;28;20202;-79
2021/09/01 07:37:59;;;;;;;14.77;8.43;;;;;;;11.18;100.00;94691.59;5075460;28;20207;-80
2021/09/01 07:40:27;;;;;;;14.93;8.60;;;;;;;11.39;100.00;94696.09;5075273;28;20230;-78
2021/09/01 07:42:56;;;;;;;12.97;7.70;;;;;;;11.29;100.00;94687.69;5075197;28;20650;-79
2021/09/01 07:45:31;;;;;;;13.80;8.23;;;;;;;11.28;100.00;94681.66;5075072;28;20334;-79
2021/09/01 07:47:58;;;;;;;16.20;9.73;;;;;;;11.63;100.00;94681.06;5075128;28;20260;-80
2021/09/01 07:50:26;;;;;;;11.23;7.07;;;;;;;11.54;100.00;94685.59;5074841;28;20530;-82
2021/09/01 07:52:53;;;;;;;11.93;7.60;;;;;;;11.87;100.00;94684.34;5057349;28;20199;-81
2021/09/01 07:55:19;;;;;;;11.80;7.53;;;;;;;12.02;100.00;94685.94;5058785;28;20233;-82
2021/09/01 07:57:46;;;;;;;11.20;6.00;;;;;;;12.34;100.00;94691.66;5056848;28;20226;-82
2021/09/01 08:00:15;;;;;;;11.03;6.77;;;;;;;12.55;100.00;94690.81;5056566;28;20231;-79
2021/09/01 08:02:43;;;;;;;15.60;6.60;;;;;;;12.48;100.00;94695.19;5054808;28;20201;-81
2021/09/01 08:05:15;;;;;;;8.83;5.70;;;;;;;12.83;100.00;94691.84;5056650;28;20577;-83
2021/09/01 08:07:42;;;;;;;7.50;5.00;;;;;;;13.13;100.00;94692.41;5072833;28;20751;-84
2021/09/01 08:10:09;;;;;;;7.05;4.78;;;;;;;13.33;100.00;94697.81;5076427;28;20202;-81
2021/09/01 08:12:39;;;;;;;12.25;5.55;;;;;;;13.39;100.00;94690.94;5076624;28;20199;-83
2021/09/01 08:15:07;;;;;;;9.10;5.35;;;;;;;13.08;100.00;94697.44;5055539;28;20610;-83
2021/09/01 08:17:35;;;;;;;7.50;5.25;;;;;;;12.98;100.00;94700.41;5054878;28;20249;-84
2021/09/01 08:20:04;;;;;;;9.95;6.10;;;;;;;12.86;100.00;94701.94;5055305;28;20223;-82
2021/09/01 08:22:30;;;;;;;11.20;7.03;;;;;;;12.83;100.00;94705.75;5057797;28;20207;-84
2021/09/01 08:24:57;;;;;;;13.15;6.70;;;;;;;12.65;100.00;94705.41;5055041;28;20684;-82
2021/09/01 08:27:23;;;;;;;15.50;7.40;;;;;;;12.59;100.00;94707.78;5054758;28;20200;-84
2021/09/01 08:29:50;;;;;;;9.88;6.82;;;;;;;12.66;100.00;94712.28;5055393;28;20618;-82
2021/09/01 08:32:16;;;;;;;11.15;7.25;;;;;;;12.96;100.00;94703.22;5054813;28;20203;-81
2021/09/01 08:34:45;;;;;;;11.82;6.82;;;;;;;13.06;100.00;94707.31;5054240;28;20224;-81
2021/09/01 08:37:12;;;;;;;10.35;6.32;;;;;;;12.95;100.00;94704.19;5054170;28;20207;-81
2021/09/01 08:39:40;;;;;;;8.85;5.60;;;;;;;12.75;100.00;94705.88;5054136;28;20281;-82
2021/09/01 08:42:07;;;;;;;9.43;6.60;;;;;;;13.24;100.00;94696.28;5054025;28;20288;-82
2021/09/01 08:44:34;;;;;;;11.68;6.30;;;;;;;13.46;100.00;94703.09;5054083;28;20207;-84
2021/09/01 08:47:01;;;;;;;8.90;6.00;;;;;;;13.51;100.00;94699.91;5070189;28;20241;-83
2021/09/01 08:49:29;;;;;;;9.93;6.10;;;;;;;13.51;100.00;94702.53;5073988;28;20233;-82
2021/09/01 08:51:59;;;;;;;7.53;5.07;;;;;;;13.54;100.00;94688.19;5074191;28;20654;-82
2021/09/01 08:54:26;;;;;;;9.95;6.32;;;;;;;13.87;100.00;94690.94;5074011;28;20206;-81
2021/09/01 08:56:52;;;;;;;11.55;5.50;;;;;;;13.72;100.00;94700.78;5073983;28;20206;-81
2021/09/01 08:59:19;;;;;;;8.68;5.72;;;;;;;13.87;100.00;94696.19;5073785;28;20226;-83
2021/09/01 09:01:47;;;;;;;10.70;6.13;;;;;;;13.93;100.00;94702.47;5073779;28;20201;-82
2021/09/01 09:04:18;;;;;;;8.85;4.40;;;;;;;14.35;100.00;94706.56;5073797;28;20295;-83
2021/09/01 09:06:46;;;;;;;9.18;5.10;;;;;;;14.31;100.00;94699.31;5073568;28;20207;-82
2021/09/01 09:09:17;;;;;;;7.03;5.13;;;;;;;14.35;100.00;94696.06;5074132;28;20660;-83
2021/09/01 09:11:44;;;;;;;8.00;5.30;;;;;;;14.53;100.00;94703.34;5074295;28;20676;-82
2021/09/01 09:14:18;;;;;;;9.02;5.22;;;;;;;14.50;100.00;94701.13;5075022;28;20207;-84
2021/09/01 09:16:59;;;;;;;10.32;5.97;;;;;;;14.55;100.00;94700.53;5075530;28;20221;-83
2021/09/01 09:19:42;;;;;;;7.57;5.05;;;;;;;14.76;100.00;94697.72;5074251;28;20261;-83
2021/09/01 09:22:10;;;;;;;9.25;5.10;;;;;;;15.06;100.00;94697.28;5073424;28;20206;-83
2021/09/01 09:24:40;;;;;;;8.05;4.50;;;;;;;15.38;100.00;94704.50;5075395;28;20199;-83
2021/09/01 09:27:07;;;;;;;5.97;3.83;;;;;;;15.58;100.00;94702.63;5074962;28;20213;-81
2021/09/01 09:29:38;;;;;;;6.28;4.43;;;;;;;15.56;100.00;94712.53;5072997;28;20202;-81
2021/09/01 09:32:06;;;;;;;8.30;4.57;;;;;;;15.43;100.00;94704.69;5073835;28;20207;-82
2021/09/01 09:34:39;;;;;;;10.02;6.28;;;;;;;15.57;100.00;94697.56;5073386;28;20206;-82
2021/09/01 09:37:08;;;;;;;9.38;5.80;;;;;;;15.63;100.00;94696.72;5073503;28;20206;-83
2021/09/01 09:39:39;;;;;;;10.50;5.82;;;;;;;15.45;100.00;94694.75;5072537;28;20218;-81
2021/09/01 09:42:07;;;;;;;8.77;4.63;;;;;;;15.57;100.00;94697.56;5073002;28;20244;-81
2021/09/01 09:44:33;;;;;;;6.22;3.72;;;;;;;15.85;100.00;94694.63;5072775;28;20199;-82
2021/09/01 09:47:03;;;;;;;5.45;3.30;;;;;;;16.12;98.43;94695.31;5073138;28;20220;-82
2021/09/01 09:49:33;;;;;;;8.65;3.40;;;;;;;16.61;96.77;94700.84;5073064;28;20279;-82
2021/09/01 09:52:00;;;;;;;6.22;3.60;;;;;;;16.94;100.00;94697.16;5072938;28;20203;-81
2021/09/01 09:54:31;;;;;;;5.65;3.15;;;;;;;17.00;96.34;94701.56;5072905;28;20199;-83
2021/09/01 09:57:09;;;;;;;6.75;3.17;;;;;;;17.00;90.73;94702.38;5072897;28;20209;-83
2021/09/01 09:59:44;;;;;;;8.25;3.30;;;;;;;16.65;88.02;94704.66;5072917;28;20223;-83
2021/09/01 10:02:10;;;;;;;7.30;3.60;;;;;;;16.19;90.50;94701.34;5072793;28;20649;-83
2021/09/01 10:04:40;;;;;;;5.07;3.30;;;;;;;16.43;93.00;94707.66;5072857;28;20209;-80
2021/09/01 10:07:06;;;;;;;6.00;3.42;;;;;;;16.72;93.56;94704.59;5072444;28;20441;-80
2021/09/01 10:09:33;;;;;;;7.00;3.60;;;;;;;17.21;96.41;94697.72;5072665;28;20289;-79
2021/09/01 10:12:00;;;;;;;7.40;3.60;;;;;;;17.40;94.19;94703.78;5072645;28;20202;-80
2021/09/01 10:14:31;;;;;;;5.30;3.13;;;;;;;17.76;80.30;94700.34;5072901;28;20198;-80
2021/09/01 10:17:04;;;;;;;8.13;3.55;;;;;;;17.69;81.99;94698.81;5072925;28;20203;-80
2021/09/01 10:19:31;;;;;;;5.60;3.20;;;;;;;17.69;88.04;94702.25;5072496;28;20230;-80
2021/09/01 10:22:01;;;;;;;5.32;3.20;;;;;;;17.28;83.51;94703.72;5072526;28;20199;-80
2021/09/01 10:24:30;;;;;;;8.82;3.42;;;;;;;17.20;84.73;94704.00;5072890;28;20198;-80
2021/09/01 10:27:03;;;;;;;5.82;3.00;;;;;;;17.19;87.71;94694.50;5072800;28;20198;-81
2021/09/01 10:29:42;;;;;;;6.18;3.25;;;;;;;17.37;90.63;94702.41;5072662;28;20557;-80
2021/09/01 10:32:42;;;;;;;8.27;4.15;;;;;;;17.57;94.09;94696.13;5073493;28;20217;-81
2021/09/01 10:35:30;;;;;;;4.82;3.42;;;;;;;17.49;83.59;94693.78;5031566;28;20235;-81
2021/09/01 10:37:59;;;;;;;4.57;2.92;;;;;;;17.46;82.42;94689.72;5070061;28;20242;-79
2021/09/01 10:41:03;;;;;;;5.40;3.28;;;;;;;17.64;82.97;94694.19;5075300;28;20791;-80
2021/09/01 10:43:29;;;;;;;5.25;3.20;;;;;;;17.86;84.43;94685.81;5076374;28;20228;-79
2021/09/01 10:45:58;;;;;;;5.88;3.03;;;;;;;17.99;81.46;94683.03;5075991;28;20701;-79
2021/09/01 10:48:24;;;;;;;7.95;3.40;;;;;;;18.04;81.25;94693.72;5076041;28;20227;-79
2021/09/01 10:50:56;;;;;;;5.15;3.22;;;;;;;18.29;79.43;94683.00;5076076;28;20203;-79
2021/09/01 10:53:25;;;;;;;4.13;2.67;;;;;;;18.51;79.98;94679.03;5076448;28;20336;-79
2021/09/01 10:56:05;;;;;;;5.28;3.25;;;;;;;18.53;72.83;94672.47;5075353;28;20513;-81
2021/09/01 10:58:34;;;;;;;5.10;3.28;;;;;;;18.54;73.47;94663.50;5076099;28;20202;-81
2021/09/01 11:01:10;;;;;;;5.03;2.92;;;;;;;18.64;72.89;94669.03;5075933;28;20232;-81
2021/09/01 11:03:40;;;;;;;5.30;3.03;;;;;;;18.18;78.75;94664.47;5075885;28;20198;-80
2021/09/01 11:06:19;;;;;;;4.82;2.90;;;;;;;17.98;77.21;94670.81;5076131;28;20203;-81
2021/09/01 11:09:04;;;;;;;6.57;3.20;;;;;;;17.75;78.93;94677.59;5075961;28;20201;-81
2021/09/01 11:11:48;;;;;;;5.65;3.15;;;;;;;17.80;78.57;94673.47;5075969;28;20210;-80
2021/09/01 11:14:31;;;;;;;5.80;2.83;;;;;;;18.04;78.32;94683.16;5075912;28;20198;-80
2021/09/01 11:17:02;;;;;;;3.75;2.80;;;;;;;18.09;76.50;94674.56;5075969;28;20207;-79
2021/09/01 11:19:31;;;;;;;7.88;3.67;;;;;;;18.13;77.03;94678.34;5075795;28;20252;-80
2021/09/01 11:21:59;;;;;;;4.90;3.30;;;;;;;18.25;74.67;94673.09;5075371;28;20446;-81
2021/09/01 11:24:28;;;;;;;7.45;3.25;;;;;;;18.73;76.49;94672.16;5075550;28;20202;-81
2021/09/01 11:26:58;;;;;;;6.30;3.30;;;;;;;18.82;70.18;94665.50;5075443;28;20669;-81